Time;durP1;ratioP1;P1;durP2;ratioP2;P2;SDS_P1;SDS_P2;PMS_P1;PMS_P2;Temp;Humidity;BMP_temperature;BMP_pressure;BME280_temperature;BME280_humidity;BME280_pressure;Samples;Min_cycle;Max_cycle;Signal;HPM_P1;HPM_P2
2022/01/05 00:00:48;;;;;;;3.75;1.98;;;5.70;80.40;;;;;;5039270;28;20495;-83
2022/01/05 00:03:14;;;;;;;7.93;2.63;;;5.70;80.30;;;;;;5037123;28;20095;-83
2022/01/05 00:05:39;;;;;;;11.68;2.47;;;5.80;80.40;;;;;;5038305;28;20436;-83
2022/01/05 00:08:05;;;;;;;7.20;2.72;;;5.90;80.10;;;;;;5037151;28;20069;-84
2022/01/05 00:10:31;;;;;;;13.43;3.03;;;6.00;80.00;;;;;;5052425;28;20030;-83
2022/01/05 00:12:57;;;;;;;5.45;2.50;;;6.00;79.90;;;;;;5037866;28;20039;-83
2022/01/05 00:15:22;;;;;;;7.55;2.95;;;6.00;79.60;;;;;;5036827;28;20022;-83
2022/01/05 00:17:48;;;;;;;6.20;2.67;;;6.00;79.80;;;;;;5038467;28;20053;-83
2022/01/05 00:20:14;;;;;;;6.65;2.53;;;6.10;79.90;;;;;;5036535;28;20064;-83
2022/01/05 00:22:40;;;;;;;5.63;1.92;;;6.20;79.40;;;;;;5038582;28;20109;-83
2022/01/05 00:25:06;;;;;;;8.35;2.60;;;6.10;79.70;;;;;;5036641;28;20025;-83
2022/01/05 00:27:32;;;;;;;6.78;2.60;;;6.10;79.50;;;;;;5037562;28;20038;-83
2022/01/05 00:29:58;;;;;;;7.78;2.65;;;6.10;79.80;;;;;;5048202;28;20032;-83
2022/01/05 00:32:24;;;;;;;6.55;2.40;;;6.10;80.20;;;;;;5051477;28;20021;-83
2022/01/05 00:34:52;;;;;;;4.18;2.80;;;5.90;80.00;;;;;;5048255;28;20703;-83
2022/01/05 00:37:18;;;;;;;7.07;2.20;;;5.90;80.60;;;;;;5036555;28;20047;-83
2022/01/05 00:39:43;;;;;;;4.15;2.50;;;5.80;80.90;;;;;;5038111;28;20056;-83
2022/01/05 00:42:09;;;;;;;4.78;1.95;;;5.70;80.90;;;;;;5036150;28;20104;-83
2022/01/05 00:44:37;;;;;;;6.05;2.13;;;5.70;81.00;;;;;;5037431;28;20447;-83
2022/01/05 00:47:03;;;;;;;8.00;2.75;;;5.70;81.50;;;;;;5036772;28;20033;-83
2022/01/05 00:49:29;;;;;;;7.32;3.30;;;5.70;81.70;;;;;;5036335;28;20014;-83
2022/01/05 00:51:56;;;;;;;5.45;2.85;;;5.60;81.70;;;;;;5052620;28;20040;-83
2022/01/05 00:54:21;;;;;;;7.40;2.72;;;5.50;81.50;;;;;;5051308;28;20014;-83
2022/01/05 00:56:47;;;;;;;4.78;2.85;;;5.60;81.80;;;;;;5053147;28;20462;-83
2022/01/05 00:59:13;;;;;;;4.03;2.95;;;5.60;81.90;;;;;;5036163;28;20029;-83
2022/01/05 01:01:41;;;;;;;4.55;2.25;;;5.60;82.20;;;;;;5040460;28;20033;-83
2022/01/05 01:04:07;;;;;;;2.80;2.08;;;5.70;81.80;;;;;;5056290;28;20025;-83
2022/01/05 01:06:33;;;;;;;6.75;2.42;;;5.60;81.80;;;;;;5055988;28;20082;-83
2022/01/05 01:08:59;;;;;;;9.13;2.70;;;5.60;82.00;;;;;;5061879;28;20025;-83
2022/01/05 01:11:24;;;;;;;6.97;2.67;;;5.60;81.80;;;;;;5035932;28;20109;-83
2022/01/05 01:13:51;;;;;;;6.93;2.97;;;5.60;81.90;;;;;;5037549;28;20029;-82
2022/01/05 01:16:19;;;;;;;4.85;2.35;;;5.50;82.10;;;;;;5035936;28;20026;-83
2022/01/05 01:18:48;;;;;;;6.53;2.97;;;5.40;81.60;;;;;;5036582;28;20045;-83
2022/01/05 01:21:13;;;;;;;9.73;2.17;;;5.30;81.80;;;;;;5036167;28;20578;-83
2022/01/05 01:23:42;;;;;;;4.78;2.35;;;5.30;82.10;;;;;;5034827;28;20104;-82
2022/01/05 01:26:08;;;;;;;6.43;2.17;;;5.30;82.10;;;;;;5037171;28;20419;-82
2022/01/05 01:28:34;;;;;;;4.97;2.38;;;5.30;82.40;;;;;;5035230;28;20033;-82
2022/01/05 01:30:59;;;;;;;6.82;2.85;;;5.30;82.40;;;;;;5036863;28;20068;-82
2022/01/05 01:33:25;;;;;;;5.57;2.47;;;5.20;81.50;;;;;;5035622;28;20052;-82
2022/01/05 01:35:51;;;;;;;3.85;2.20;;;5.20;81.20;;;;;;5036659;28;20034;-83
2022/01/05 01:38:17;;;;;;;5.80;2.30;;;5.10;81.00;;;;;;5038292;28;20048;-83
2022/01/05 01:40:42;;;;;;;4.80;2.15;;;5.20;81.60;;;;;;5055317;28;20100;-82
2022/01/05 01:43:08;;;;;;;8.93;2.90;;;5.20;81.30;;;;;;5056770;28;20057;-83
2022/01/05 01:45:34;;;;;;;4.22;2.13;;;5.20;81.20;;;;;;5054013;28;20037;-83
2022/01/05 01:48:00;;;;;;;5.68;2.17;;;5.20;81.60;;;;;;5036860;28;20041;-83
2022/01/05 01:50:27;;;;;;;12.25;2.25;;;5.10;81.40;;;;;;5035356;28;20052;-83
2022/01/05 01:52:56;;;;;;;6.88;1.95;;;5.20;81.70;;;;;;5036318;28;20080;-83
2022/01/05 01:55:21;;;;;;;4.57;2.17;;;5.10;81.90;;;;;;5035864;28;20045;-83
2022/01/05 01:57:47;;;;;;;10.57;2.63;;;5.10;82.00;;;;;;5035118;28;20029;-83
2022/01/05 02:00:14;;;;;;;7.35;2.05;;;5.10;81.90;;;;;;5034871;28;20052;-83
2022/01/05 02:02:42;;;;;;;4.80;1.95;;;5.00;81.80;;;;;;5035317;28;20057;-82
2022/01/05 02:05:08;;;;;;;9.82;2.47;;;5.00;81.80;;;;;;5036448;28;20048;-83
2022/01/05 02:07:34;;;;;;;3.15;2.00;;;5.00;81.60;;;;;;5033597;28;20035;-83
2022/01/05 02:10:10;;;;;;;;;;;;;;;;;;;;;
2022/01/05 02:12:36;;;;;;;2.95;1.55;;;4.90;82.20;;;;;;5074590;28;20393;-81
2022/01/05 02:15:03;;;;;;;5.63;1.67;;;4.90;82.10;;;;;;5035157;28;20060;-83
2022/01/05 02:17:45;;;;;;;5.07;2.25;;;4.90;82.30;;;;;;5035797;28;20049;-83
2022/01/05 02:20:13;;;;;;;5.82;1.55;;;4.90;82.30;;;;;;5034898;28;20463;-83
2022/01/05 02:22:39;;;;;;;13.90;2.38;;;4.80;82.40;;;;;;5036142;28;20076;-83
2022/01/05 02:25:04;;;;;;;7.22;2.33;;;4.80;82.20;;;;;;5043547;28;20017;-83
2022/01/05 02:27:30;;;;;;;3.25;2.00;;;4.90;82.00;;;;;;5055027;28;20025;-83
2022/01/05 02:29:56;;;;;;;6.05;2.08;;;4.90;81.60;;;;;;5039530;28;20045;-82
2022/01/05 02:32:21;;;;;;;9.35;2.33;;;5.00;81.70;;;;;;5034696;28;20383;-83
2022/01/05 02:34:47;;;;;;;5.85;1.92;;;5.00;81.80;;;;;;5038777;28;20123;-83
2022/01/05 02:37:13;;;;;;;5.65;1.60;;;5.00;81.00;;;;;;5038799;28;20169;-83
2022/01/05 02:39:38;;;;;;;4.45;1.75;;;4.90;81.40;;;;;;5040300;28;20026;-83
2022/01/05 02:42:04;;;;;;;3.92;1.55;;;5.00;81.20;;;;;;5038804;28;20057;-83
2022/01/05 02:44:30;;;;;;;6.32;1.70;;;4.90;80.80;;;;;;5040407;28;20018;-83
2022/01/05 02:46:56;;;;;;;7.25;2.38;;;4.90;80.70;;;;;;5038677;28;20057;-82
2022/01/05 02:49:21;;;;;;;4.75;1.80;;;4.90;80.80;;;;;;5038562;28;20025;-83
2022/01/05 02:51:47;;;;;;;1.63;1.15;;;5.00;80.80;;;;;;5039359;28;20041;-82
2022/01/05 02:54:13;;;;;;;4.05;1.55;;;5.00;80.50;;;;;;5038651;28;20021;-83
2022/01/05 02:56:38;;;;;;;8.38;2.70;;;4.90;80.60;;;;;;5039630;28;20551;-82
2022/01/05 02:59:04;;;;;;;6.80;3.08;;;5.00;81.00;;;;;;5038465;28;20368;-83
2022/01/05 03:01:30;;;;;;;7.65;2.80;;;5.00;81.10;;;;;;5051412;28;20041;-83
2022/01/05 03:03:55;;;;;;;3.42;2.60;;;4.90;80.60;;;;;;5038452;28;20047;-82
2022/01/05 03:06:22;;;;;;;4.93;1.60;;;4.80;80.50;;;;;;5037142;28;20415;-82
2022/01/05 03:08:47;;;;;;;7.45;2.45;;;4.80;80.70;;;;;;5048906;28;20032;-82
2022/01/05 03:11:13;;;;;;;8.43;2.45;;;4.70;80.90;;;;;;5078184;28;20028;-83
2022/01/05 03:13:39;;;;;;;4.18;1.70;;;4.80;81.20;;;;;;5079837;28;20024;-82
2022/01/05 03:16:05;;;;;;;3.90;2.10;;;4.70;81.40;;;;;;5077803;28;20393;-83
2022/01/05 03:18:30;;;;;;;4.60;2.22;;;4.80;81.50;;;;;;5052240;28;20056;-83
2022/01/05 03:20:56;;;;;;;6.00;2.47;;;4.70;81.50;;;;;;5036992;28;20033;-82
2022/01/05 03:23:21;;;;;;;3.90;2.28;;;4.70;81.50;;;;;;5037997;28;20029;-82
2022/01/05 03:25:47;;;;;;;7.68;1.90;;;4.70;81.40;;;;;;5039118;28;20084;-83
2022/01/05 03:28:13;;;;;;;5.40;2.22;;;4.60;81.40;;;;;;5037521;28;20029;-82
2022/01/05 03:30:40;;;;;;;7.32;2.15;;;4.70;81.40;;;;;;5039448;28;20036;-82
2022/01/05 03:33:11;;;;;;;2.17;1.65;;;4.60;81.80;;;;;;5037875;28;20752;-82
2022/01/05 03:35:44;;;;;;;5.15;2.38;;;4.50;81.70;;;;;;5038835;28;20024;-82
2022/01/05 03:38:09;;;;;;;9.98;2.17;;;4.50;81.30;;;;;;5046082;28;20033;-82
2022/01/05 03:40:36;;;;;;;8.90;2.53;;;4.50;81.90;;;;;;5037650;28;20699;-82
2022/01/05 03:43:03;;;;;;;7.80;2.40;;;4.50;81.80;;;;;;5039092;28;20041;-82
2022/01/05 03:45:29;;;;;;;4.30;1.63;;;4.50;81.90;;;;;;5035453;28;20025;-82
2022/01/05 03:47:55;;;;;;;8.55;2.30;;;4.50;81.90;;;;;;5039142;28;20476;-82
2022/01/05 03:50:21;;;;;;;6.35;1.92;;;4.50;81.90;;;;;;5037542;28;20056;-82
2022/01/05 03:52:49;;;;;;;5.38;1.80;;;4.60;81.70;;;;;;5038724;28;20084;-82
2022/01/05 03:55:15;;;;;;;3.80;1.98;;;4.60;81.50;;;;;;5053011;28;20029;-82
2022/01/05 03:57:41;;;;;;;7.43;1.73;;;4.70;81.40;;;;;;5037348;28;20071;-82
2022/01/05 04:00:07;;;;;;;4.57;2.00;;;4.70;81.80;;;;;;5038649;28;20104;-82
2022/01/05 04:02:33;;;;;;;6.72;2.30;;;4.70;81.60;;;;;;5037101;28;20038;-82
2022/01/05 04:04:58;;;;;;;8.48;2.42;;;4.80;81.00;;;;;;5038593;28;20068;-82
2022/01/05 04:07:24;;;;;;;4.65;1.70;;;4.80;81.10;;;;;;5037135;28;20070;-82
2022/01/05 04:09:52;;;;;;;6.25;2.28;;;4.90;81.20;;;;;;5060591;28;20025;-82
2022/01/05 04:12:18;;;;;;;5.05;2.30;;;4.90;80.90;;;;;;5037130;28;20094;-82
2022/01/05 04:14:43;;;;;;;5.55;1.73;;;4.90;81.00;;;;;;5035750;28;20116;-82
2022/01/05 04:17:09;;;;;;;6.75;2.03;;;5.00;80.80;;;;;;5038033;28;20049;-82
2022/01/05 04:19:35;;;;;;;6.70;1.95;;;5.00;80.80;;;;;;5036950;28;20447;-82
2022/01/05 04:22:01;;;;;;;6.32;1.75;;;5.10;80.70;;;;;;5045813;28;20021;-82
2022/01/05 04:24:27;;;;;;;5.00;1.67;;;5.10;80.50;;;;;;5056875;28;20466;-82
2022/01/05 04:26:53;;;;;;;9.13;1.90;;;5.20;80.20;;;;;;5051236;28;20147;-83
2022/01/05 04:29:18;;;;;;;3.92;1.50;;;5.20;80.30;;;;;;5036825;28;20024;-82
2022/01/05 04:31:45;;;;;;;10.77;2.22;;;5.20;80.50;;;;;;5036335;28;20051;-82
2022/01/05 04:34:11;;;;;;;2.10;1.58;;;5.20;80.50;;;;;;5038191;28;20400;-82
2022/01/05 04:36:38;;;;;;;6.57;1.88;;;5.30;80.90;;;;;;5036431;28;20033;-83
2022/01/05 04:39:04;;;;;;;3.05;1.52;;;5.30;80.50;;;;;;5036924;28;20033;-82
2022/01/05 04:41:29;;;;;;;5.47;1.80;;;5.20;80.80;;;;;;5035178;28;20766;-82
2022/01/05 04:43:57;;;;;;;7.72;2.70;;;5.20;80.70;;;;;;5037542;28;20146;-82
2022/01/05 04:46:23;;;;;;;8.55;3.20;;;5.10;80.90;;;;;;5035341;28;20022;-82
2022/01/05 04:48:48;;;;;;;9.45;2.63;;;5.00;81.20;;;;;;5036789;28;20034;-83
2022/01/05 04:51:14;;;;;;;4.43;1.73;;;4.80;81.50;;;;;;5037452;28;20021;-82
2022/01/05 04:53:40;;;;;;;3.47;1.95;;;4.70;81.40;;;;;;5037045;28;20392;-82
2022/01/05 04:56:13;;;;;;;6.20;1.77;;;4.70;81.60;;;;;;5037360;28;20029;-82
2022/01/05 04:58:38;;;;;;;3.28;1.70;;;4.70;81.80;;;;;;5037206;28;20059;-82
2022/01/05 05:01:04;;;;;;;10.52;2.22;;;4.70;81.30;;;;;;5037945;28;20030;-82
2022/01/05 05:03:50;;;;;;;5.47;2.05;;;4.70;81.80;;;;;;5037566;28;20033;-82
2022/01/05 05:06:16;;;;;;;3.35;1.77;;;4.70;81.80;;;;;;5041668;28;20029;-82
2022/01/05 05:08:42;;;;;;;7.95;2.08;;;4.80;81.40;;;;;;5057836;28;20044;-82
2022/01/05 05:11:19;;;;;;;5.45;1.67;;;4.90;81.40;;;;;;5057965;28;20017;-83
2022/01/05 05:13:45;;;;;;;3.20;1.40;;;4.90;81.00;;;;;;5054228;28;20033;-82
2022/01/05 05:16:11;;;;;;;4.75;1.75;;;4.90;81.20;;;;;;5037717;28;20036;-82
2022/01/05 05:18:37;;;;;;;6.25;2.05;;;4.90;80.70;;;;;;5037622;28;20049;-82
2022/01/05 05:21:12;;;;;;;8.55;1.80;;;4.80;81.00;;;;;;5045698;28;20033;-82
2022/01/05 05:23:37;;;;;;;2.65;1.73;;;4.80;81.40;;;;;;5057391;28;20032;-82
2022/01/05 05:26:03;;;;;;;3.60;1.77;;;4.80;81.40;;;;;;5038047;28;20037;-82
2022/01/05 05:28:29;;;;;;;6.65;2.17;;;4.90;81.30;;;;;;5037443;28;20037;-82
2022/01/05 05:31:02;;;;;;;4.43;1.90;;;5.00;81.30;;;;;;5037239;28;20028;-82
2022/01/05 05:33:28;;;;;;;6.28;2.05;;;5.00;81.00;;;;;;5037409;28;20022;-82
2022/01/05 05:35:53;;;;;;;2.28;1.45;;;5.10;80.70;;;;;;5037287;28;20037;-82
2022/01/05 05:38:19;;;;;;;2.08;1.55;;;5.20;80.70;;;;;;5037129;28;20029;-82
2022/01/05 05:40:55;;;;;;;1.50;1.30;;;5.20;80.30;;;;;;5037291;28;20105;-82
2022/01/05 05:43:20;;;;;;;3.83;1.42;;;5.10;80.80;;;;;;5055329;28;20036;-83
2022/01/05 05:45:46;;;;;;;5.13;2.05;;;5.10;80.90;;;;;;5056539;28;20036;-80
2022/01/05 05:48:15;;;;;;;4.03;1.60;;;5.10;80.70;;;;;;5049627;28;20030;-80
2022/01/05 05:50:47;;;;;;;4.60;1.98;;;5.10;81.10;;;;;;5035381;28;20025;-85
2022/01/05 05:53:14;;;;;;;7.22;2.25;;;5.00;80.90;;;;;;5051325;28;20606;-80
2022/01/05 05:55:40;;;;;;;3.20;1.60;;;5.00;80.90;;;;;;5033923;28;20079;-81
2022/01/05 05:58:08;;;;;;;2.45;1.73;;;5.00;80.90;;;;;;5035179;28;20029;-82
2022/01/05 06:00:36;;;;;;;2.47;1.35;;;4.90;80.90;;;;;;5035345;28;20108;-80
2022/01/05 06:03:02;;;;;;;3.20;1.30;;;4.90;80.40;;;;;;5035487;28;20080;-85
2022/01/05 06:05:28;;;;;;;3.00;1.30;;;4.80;80.20;;;;;;5036059;28;20029;-84
2022/01/05 06:07:53;;;;;;;2.42;1.85;;;4.70;80.70;;;;;;5050810;28;20064;-87
2022/01/05 06:10:27;;;;;;;5.78;1.67;;;4.70;80.70;;;;;;5058919;28;20108;-79
2022/01/05 06:12:52;;;;;;;1.60;1.45;;;4.70;80.80;;;;;;5034984;28;20080;-82
2022/01/05 06:15:18;;;;;;;1.50;1.40;;;4.70;80.70;;;;;;5037073;28;20660;-80
2022/01/05 06:17:44;;;;;;;6.88;1.88;;;4.80;80.70;;;;;;5050274;28;20049;-80
2022/01/05 06:20:21;;;;;;;2.47;1.92;;;4.90;80.60;;;;;;5039561;28;20053;-79
2022/01/05 06:22:47;;;;;;;6.28;1.70;;;4.90;80.30;;;;;;5044676;28;20052;-78
2022/01/05 06:25:13;;;;;;;6.07;1.80;;;4.90;80.40;;;;;;5051501;28;20518;-77
2022/01/05 06:27:56;;;;;;;4.25;1.55;;;5.00;80.30;;;;;;5040547;28;20029;-77
2022/01/05 06:30:22;;;;;;;7.22;2.17;;;5.10;80.30;;;;;;5033011;28;20229;-77
2022/01/05 06:32:48;;;;;;;4.70;1.75;;;5.10;80.20;;;;;;5032516;28;20021;-78
2022/01/05 06:35:24;;;;;;;;;;;;;;;;;;;;;
2022/01/05 06:37:51;;;;;;;4.78;1.42;;;5.20;80.00;;;;;;5033601;28;20025;-78
2022/01/05 06:40:17;;;;;;;5.78;2.17;;;5.20;80.10;;;;;;5034160;28;20029;-77
2022/01/05 06:42:43;;;;;;;4.53;1.85;;;5.20;80.10;;;;;;5039582;28;20641;-77
2022/01/05 06:45:26;;;;;;;3.15;1.90;;;5.20;80.20;;;;;;5039363;28;20430;-78
2022/01/05 06:47:52;;;;;;;2.83;1.63;;;5.20;80.50;;;;;;5033474;28;20048;-76
2022/01/05 06:50:17;;;;;;;10.32;2.60;;;5.20;80.60;;;;;;5047434;28;20036;-77
2022/01/05 06:53:03;;;;;;;5.45;1.85;;;5.20;80.30;;;;;;5039219;28;20368;-76
2022/01/05 06:55:29;;;;;;;6.18;1.85;;;5.20;80.50;;;;;;5043246;28;20037;-77
2022/01/05 06:57:54;;;;;;;3.90;1.67;;;5.30;80.00;;;;;;5044635;28;20017;-77
2022/01/05 07:00:31;;;;;;;2.83;1.67;;;5.30;79.70;;;;;;5039818;28;20037;-76
2022/01/05 07:02:58;;;;;;;4.35;1.50;;;5.30;79.40;;;;;;5050760;28;20510;-77
2022/01/05 07:05:23;;;;;;;4.28;1.95;;;5.30;79.80;;;;;;5053045;28;20078;-77
2022/01/05 07:08:07;;;;;;;2.00;1.35;;;5.30;79.60;;;;;;5048697;28;20029;-77
2022/01/05 07:10:33;;;;;;;9.95;1.60;;;5.40;79.50;;;;;;5047207;28;20037;-78
2022/01/05 07:12:58;;;;;;;2.88;1.85;;;5.40;79.60;;;;;;5039724;28;20022;-78
2022/01/05 07:15:42;;;;;;;13.05;2.13;;;5.30;79.60;;;;;;5033768;28;20053;-77
2022/01/05 07:18:07;;;;;;;5.78;2.10;;;5.50;79.90;;;;;;5038397;28;20045;-78
2022/01/05 07:20:33;;;;;;;7.15;1.95;;;5.40;79.30;;;;;;5044008;28;20028;-78
2022/01/05 07:23:04;;;;;;;3.65;1.50;;;5.40;79.60;;;;;;5050028;28;20036;-78
2022/01/05 07:25:32;;;;;;;2.05;1.85;;;5.50;79.90;;;;;;5050548;28;20049;-78
2022/01/05 07:27:57;;;;;;;3.75;1.33;;;5.50;79.80;;;;;;5054076;28;20406;-78
2022/01/05 07:30:23;;;;;;;7.43;1.63;;;5.50;79.60;;;;;;5056347;28;20070;-78
2022/01/05 07:32:49;;;;;;;2.22;1.40;;;5.50;80.00;;;;;;5055896;28;20041;-78
2022/01/05 07:35:22;;;;;;;2.25;1.70;;;5.50;79.70;;;;;;5057407;28;20029;-78
2022/01/05 07:37:48;;;;;;;2.65;1.15;;;5.50;80.00;;;;;;5049222;28;20108;-78
2022/01/05 07:40:13;;;;;;;3.45;1.42;;;5.50;80.00;;;;;;5054496;28;20052;-78
2022/01/05 07:42:39;;;;;;;2.35;1.60;;;5.60;80.00;;;;;;5044482;28;20553;-78
2022/01/05 07:45:15;;;;;;;1.92;1.52;;;5.60;80.20;;;;;;5037075;28;20060;-77
2022/01/05 07:47:41;;;;;;;3.50;1.20;;;5.60;79.90;;;;;;5047859;28;20467;-78
2022/01/05 07:50:14;;;;;;;3.42;1.75;;;5.50;79.60;;;;;;5042952;28;20021;-77
2022/01/05 07:52:49;;;;;;;5.38;2.67;;;5.50;79.60;;;;;;5046368;28;20093;-78
2022/01/05 07:55:15;;;;;;;4.10;1.98;;;5.40;79.60;;;;;;5050623;28;20048;-77
2022/01/05 07:57:40;;;;;;;3.67;1.60;;;5.30;79.30;;;;;;5056005;28;20029;-78
2022/01/05 08:00:07;;;;;;;5.32;2.05;;;5.30;79.10;;;;;;5057036;28;20463;-78
2022/01/05 08:02:33;;;;;;;2.58;2.25;;;5.20;78.90;;;;;;5037840;28;20030;-77
2022/01/05 08:04:59;;;;;;;2.25;1.75;;;5.20;79.10;;;;;;5044162;28;20036;-78
2022/01/05 08:07:25;;;;;;;3.00;1.73;;;5.20;78.70;;;;;;5045576;28;20029;-78
2022/01/05 08:09:50;;;;;;;4.15;1.65;;;5.20;78.80;;;;;;5045611;28;20053;-78
2022/01/05 08:12:16;;;;;;;6.80;1.85;;;5.20;79.10;;;;;;5045166;28;20043;-78
2022/01/05 08:14:41;;;;;;;2.97;1.95;;;5.20;78.70;;;;;;5044455;28;20116;-78
2022/01/05 08:17:07;;;;;;;2.78;1.75;;;5.20;79.30;;;;;;5044793;28;20053;-78
2022/01/05 08:19:33;;;;;;;2.08;1.77;;;5.20;79.20;;;;;;5050477;28;20481;-78
2022/01/05 08:21:59;;;;;;;5.28;1.83;;;5.20;78.80;;;;;;5056609;28;20036;-78
2022/01/05 08:24:26;;;;;;;1.55;1.45;;;5.20;79.40;;;;;;5056139;28;20029;-78
2022/01/05 08:26:53;;;;;;;3.70;1.73;;;5.30;79.20;;;;;;5036904;28;20519;-78
2022/01/05 08:29:18;;;;;;;3.22;1.40;;;5.30;79.70;;;;;;5044052;28;20085;-78
2022/01/05 08:31:44;;;;;;;4.05;1.90;;;5.30;80.00;;;;;;5046631;28;20107;-78
2022/01/05 08:34:11;;;;;;;2.00;1.48;;;5.30;79.80;;;;;;5043800;28;20156;-77
2022/01/05 08:36:37;;;;;;;3.35;1.27;;;5.30;79.90;;;;;;5045763;28;20442;-78
2022/01/05 08:39:04;;;;;;;7.40;1.83;;;5.30;79.70;;;;;;5044365;28;20040;-78
2022/01/05 08:41:30;;;;;;;4.45;1.65;;;5.40;80.00;;;;;;5036371;28;20063;-78
2022/01/05 08:43:55;;;;;;;2.83;1.35;;;5.50;80.20;;;;;;5039745;28;20018;-78
2022/01/05 08:46:21;;;;;;;2.50;1.73;;;5.50;79.90;;;;;;5045363;28;20021;-78
2022/01/05 08:48:49;;;;;;;5.28;2.85;;;5.60;80.10;;;;;;5046332;28;20025;-78
2022/01/05 08:51:15;;;;;;;1.65;1.42;;;5.70;80.00;;;;;;5044652;28;20099;-77
2022/01/05 08:53:40;;;;;;;5.25;1.92;;;5.70;80.00;;;;;;5045628;28;20110;-78
2022/01/05 08:56:06;;;;;;;5.97;1.70;;;5.70;80.00;;;;;;5046148;28;20017;-78
2022/01/05 08:58:32;;;;;;;3.55;1.55;;;5.80;80.00;;;;;;5055933;28;20175;-78
2022/01/05 09:00:58;;;;;;;2.60;1.95;;;5.80;80.20;;;;;;5054497;28;20026;-78
2022/01/05 09:03:26;;;;;;;5.93;1.90;;;5.80;80.10;;;;;;5055207;28;20425;-77
2022/01/05 09:05:51;;;;;;;9.55;2.03;;;5.90;80.10;;;;;;5039978;28;20396;-77
2022/01/05 09:08:17;;;;;;;2.40;1.75;;;5.90;80.10;;;;;;5043159;28;20060;-77
2022/01/05 09:10:43;;;;;;;6.82;1.50;;;5.90;80.20;;;;;;5054652;28;20025;-78
2022/01/05 09:13:10;;;;;;;4.78;2.08;;;5.90;79.90;;;;;;5038296;28;20133;-78
2022/01/05 09:15:37;;;;;;;4.93;1.90;;;5.90;80.10;;;;;;5034722;28;20109;-77
2022/01/05 09:18:03;;;;;;;6.38;1.75;;;5.80;80.40;;;;;;5034066;28;20061;-77
2022/01/05 09:20:29;;;;;;;6.25;2.25;;;5.80;80.20;;;;;;5035483;28;20029;-78
2022/01/05 09:22:55;;;;;;;2.95;1.80;;;5.80;79.90;;;;;;5033713;28;20056;-77
2022/01/05 09:25:23;;;;;;;4.68;1.80;;;5.90;79.40;;;;;;5045285;28;20111;-76
2022/01/05 09:27:50;;;;;;;8.02;2.30;;;6.10;78.70;;;;;;5048923;28;20501;-78
2022/01/05 09:30:17;;;;;;;7.45;2.15;;;6.20;78.60;;;;;;5034761;28;20112;-78
2022/01/05 09:32:43;;;;;;;5.10;2.00;;;6.20;78.40;;;;;;5035073;28;20053;-78
2022/01/05 09:35:12;;;;;;;5.28;2.47;;;6.20;78.30;;;;;;5035117;28;20531;-78
2022/01/05 09:37:50;;;;;;;7.95;2.03;;;6.20;78.30;;;;;;5043018;28;20096;-78
2022/01/05 09:43:03;;;;;;;9.15;2.17;;;6.10;78.00;;;;;;5034363;28;20037;-78
2022/01/05 09:45:34;;;;;;;6.43;1.90;;;6.10;78.40;;;;;;5034942;28;20108;-77
2022/01/05 09:48:23;;;;;;;8.52;2.33;;;6.10;78.00;;;;;;5034822;28;20060;-78
2022/01/05 09:51:01;;;;;;;4.45;2.63;;;6.00;77.50;;;;;;5042244;28;20031;-77
2022/01/05 09:53:29;;;;;;;4.10;2.30;;;5.90;77.70;;;;;;5039168;28;20025;-78
2022/01/05 09:55:56;;;;;;;5.93;2.92;;;5.80;78.00;;;;;;5048605;28;20104;-78
2022/01/05 09:58:23;;;;;;;4.75;2.45;;;5.90;78.00;;;;;;5052275;28;20025;-78
2022/01/05 10:00:52;;;;;;;8.20;2.78;;;6.00;78.10;;;;;;5048991;28;20047;-78
2022/01/05 10:03:18;;;;;;;5.20;2.50;;;6.10;77.80;;;;;;5036599;28;20637;-78
2022/01/05 10:05:44;;;;;;;5.07;2.15;;;6.00;77.90;;;;;;5045710;28;20035;-78
2022/01/05 10:08:12;;;;;;;7.80;2.22;;;6.20;78.40;;;;;;5052461;28;20443;-77
2022/01/05 10:10:37;;;;;;;6.63;2.00;;;6.20;78.00;;;;;;5034200;28;20039;-78
2022/01/05 10:13:04;;;;;;;6.90;2.30;;;6.30;77.60;;;;;;5034364;28;20104;-78
2022/01/05 10:15:30;;;;;;;3.75;2.28;;;6.30;77.50;;;;;;5034435;28;20112;-78
2022/01/05 10:18:17;;;;;;;5.63;2.20;;;6.30;77.70;;;;;;5049458;28;20088;-78
2022/01/05 10:20:56;;;;;;;6.50;1.98;;;6.30;77.00;;;;;;5043886;28;20099;-77
2022/01/05 10:23:35;;;;;;;7.00;1.95;;;6.40;77.40;;;;;;5045283;28;20021;-78
2022/01/05 10:26:20;;;;;;;4.47;2.35;;;6.50;76.80;;;;;;5039525;28;20072;-77
2022/01/05 10:28:46;;;;;;;6.38;2.80;;;6.40;76.90;;;;;;5034501;28;20044;-77
2022/01/05 10:31:17;;;;;;;9.25;2.97;;;6.50;77.30;;;;;;5034269;28;20025;-78
2022/01/05 10:33:43;;;;;;;2.60;1.98;;;6.60;77.00;;;;;;5049640;28;20037;-78
2022/01/05 10:36:09;;;;;;;4.60;2.28;;;6.80;76.70;;;;;;5034600;28;20420;-78
2022/01/05 10:38:35;;;;;;;3.80;2.22;;;7.10;76.50;;;;;;5040190;28;20082;-78
2022/01/05 10:41:18;;;;;;;4.28;1.95;;;7.40;75.90;;;;;;5045748;28;20026;-78
2022/01/05 10:44:10;;;;;;;4.38;2.20;;;7.80;74.90;;;;;;5033196;28;20044;-78
2022/01/05 10:46:56;;;;;;;3.95;1.77;;;8.20;74.40;;;;;;5050831;28;20399;-78
2022/01/05 10:49:31;;;;;;;4.75;2.22;;;8.20;72.50;;;;;;5039767;28;20033;-78
2022/01/05 10:52:21;;;;;;;8.00;1.73;;;8.10;73.40;;;;;;5043408;28;20136;-78
2022/01/05 10:54:47;;;;;;;;;;;7.90;73.00;;;;;;5045177;28;20041;-77
2022/01/05 10:57:13;;;;;;;3.72;1.40;;;7.70;73.10;;;;;;5036580;28;19925;-77
2022/01/05 10:59:42;;;;;;;4.82;1.77;;;7.50;74.40;;;;;;5041871;28;20033;-77
2022/01/05 11:02:32;;;;;;;2.25;1.40;;;7.30;74.00;;;;;;5041799;28;20037;-78
2022/01/05 11:05:09;;;;;;;2.23;1.40;;;7.20;75.50;;;;;;5050654;28;20576;-78
2022/01/05 11:07:46;;;;;;;5.57;1.35;;;7.20;76.00;;;;;;5037924;28;20264;-77
2022/01/05 11:10:16;;;;;;;3.85;1.27;;;7.30;76.10;;;;;;5062348;28;20033;-78
2022/01/05 11:12:43;;;;;;;;;;;7.30;76.30;;;;;;5052095;28;20029;-78
2022/01/05 11:15:31;;;;;;;1.75;1.27;;;7.40;77.00;;;;;;5042076;28;19913;-78
2022/01/05 11:18:13;;;;;;;1.77;1.10;;;7.50;76.00;;;;;;5044739;28;20061;-77
2022/01/05 11:21:06;;;;;;;6.70;1.83;;;7.70;75.50;;;;;;5042040;28;20448;-76
2022/01/05 11:23:32;;;;;;;11.65;2.75;;;7.70;75.10;;;;;;5045547;28;20137;-79
2022/01/05 11:26:00;;;;;;;3.88;1.83;;;7.80;74.80;;;;;;5043931;28;20068;-80
2022/01/05 11:28:27;;;;;;;4.10;2.05;;;7.90;73.60;;;;;;5053941;28;20037;-80
2022/01/05 11:30:55;;;;;;;5.20;2.25;;;7.90;73.70;;;;;;5047578;28;20028;-80
2022/01/05 11:33:22;;;;;;;7.32;2.55;;;8.00;73.90;;;;;;5062878;28;20085;-81
2022/01/05 11:35:49;;;;;;;7.68;2.35;;;7.90;73.70;;;;;;5049160;28;20021;-82
2022/01/05 11:38:15;;;;;;;6.80;3.25;;;7.80;73.40;;;;;;5044810;28;20036;-82
2022/01/05 11:40:51;;;;;;;6.00;3.03;;;7.70;74.10;;;;;;5055981;28;20025;-81
2022/01/05 11:43:28;;;;;;;6.28;2.55;;;7.70;74.30;;;;;;5044170;28;20033;-81
2022/01/05 11:45:54;;;;;;;3.38;1.48;;;8.10;74.50;;;;;;5049607;28;20028;-81
2022/01/05 11:48:35;;;;;;;5.85;1.58;;;8.30;73.30;;;;;;5036484;28;20043;-81
2022/01/05 11:51:03;;;;;;;3.38;1.33;;;8.50;72.50;;;;;;5057085;28;20017;-78
2022/01/05 11:53:44;;;;;;;4.85;1.70;;;8.50;73.50;;;;;;5046891;28;20032;-78
2022/01/05 11:56:15;;;;;;;3.03;1.45;;;8.30;72.60;;;;;;5045234;28;20017;-82
2022/01/05 11:58:50;;;;;;;6.38;2.08;;;8.20;72.80;;;;;;5052834;28;20533;-80
2022/01/05 12:01:22;;;;;;;3.28;1.48;;;8.10;73.20;;;;;;5044117;28;20021;-79
2022/01/05 12:03:51;;;;;;;3.65;1.40;;;7.70;72.70;;;;;;5051917;28;20120;-77
2022/01/05 12:06:21;;;;;;;4.43;1.77;;;7.60;74.10;;;;;;5054560;28;20064;-87
2022/01/05 12:08:49;;;;;;;3.95;1.50;;;7.50;74.80;;;;;;5060127;28;20127;-78
2022/01/05 12:11:43;;;;;;;7.10;1.65;;;7.50;74.60;;;;;;5062849;28;20104;-82
2022/01/05 12:14:34;;;;;;;4.78;1.45;;;7.40;75.00;;;;;;5051657;28;20060;-81
2022/01/05 12:17:05;;;;;;;4.28;1.88;;;7.50;75.50;;;;;;5049234;28;20055;-83
2022/01/05 12:19:49;;;;;;;2.20;1.58;;;7.60;75.80;;;;;;5042600;28;20151;-80
2022/01/05 12:22:14;;;;;;;4.10;1.70;;;7.70;75.50;;;;;;5045323;28;20867;-79
2022/01/05 12:25:00;;;;;;;4.05;1.85;;;7.80;74.30;;;;;;5048467;28;20055;-82
2022/01/05 12:27:48;;;;;;;1.92;1.58;;;7.70;75.20;;;;;;5045086;28;20502;-81
2022/01/05 12:30:16;;;;;;;3.22;1.80;;;7.80;75.40;;;;;;5049279;28;20017;-85
2022/01/05 12:32:44;;;;;;;4.93;1.60;;;8.00;75.60;;;;;;5039155;28;20037;-79
2022/01/05 12:35:19;;;;;;;6.93;1.90;;;8.20;74.40;;;;;;5048198;28;21193;-82
2022/01/05 12:37:54;;;;;;;3.50;1.20;;;8.30;75.00;;;;;;5043195;28;20032;-88
2022/01/05 12:40:46;;;;;;;3.63;1.45;;;8.40;74.00;;;;;;5044414;28;20035;-87
2022/01/05 12:43:14;;;;;;;3.10;1.60;;;8.30;73.10;;;;;;5037623;28;20021;-86
2022/01/05 12:46:05;;;;;;;3.45;1.48;;;8.40;73.10;;;;;;5038875;28;20031;-84
2022/01/05 12:48:49;;;;;;;4.85;1.77;;;8.40;73.80;;;;;;5043521;28;20028;-85
2022/01/05 12:51:17;;;;;;;2.72;1.60;;;8.30;72.80;;;;;;5033756;28;20036;-82
2022/01/05 12:53:53;;;;;;;2.22;1.55;;;8.20;72.80;;;;;;5039881;28;20073;-82
2022/01/05 12:56:21;;;;;;;3.08;1.65;;;8.20;73.20;;;;;;5047965;28;20087;-85
2022/01/05 12:58:48;;;;;;;4.65;1.98;;;8.30;73.70;;;;;;5036706;28;20089;-86
2022/01/05 13:01:15;;;;;;;3.33;1.55;;;8.40;72.10;;;;;;5051302;28;20037;-85
2022/01/05 13:03:40;;;;;;;4.07;1.40;;;8.30;72.00;;;;;;5039812;28;20033;-82
2022/01/05 13:06:23;;;;;;;3.90;1.45;;;8.30;72.50;;;;;;5047629;28;20749;-84
2022/01/05 13:08:58;;;;;;;2.22;1.70;;;8.10;72.50;;;;;;5043734;28;20076;-88
2022/01/05 13:11:42;;;;;;;4.25;2.03;;;8.00;73.60;;;;;;5044149;28;20049;-87